GE-0001 weather

CLOSED Telavi Air Base
Telavi, Kakheti, Georgia

Public forecast

Using degrees Celsius for public forecast. Weather courtesy of forecast.io.

METAR (pilot weather report)

Closest report is Tbilisi International Airport, 31.5 nm (58.3 km) SW. Retrieved 2019/09/23 12:30 UTC (11 minutes ago):

UGTB 231230Z 18005KT 120V230 CAVOK 23/03 Q1018 NOSIG

TAF (pilot weather forecast)

Closest forecast is Tbilisi International Airport, 31.5 nm (58.3 km) SW. Retrieved 2019/09/23 12:00 UTC (41 minutes ago):

TAF UGTB 231100Z 2312/2412 16009KT CAVOK TX24/2412Z TN10/2402Z BECMG 2315/2317 VRB02KT TEMPO 2318/2402 05008KT